Eureka の空港の天気 - METARとTAF

Eureka ( CWEU / ) - カナダ ヌナブト準州Eureka
飛行場実況気象(Metar)
観測時間11/30 11:00 CST (11/30 17:00 UTC)
風向・風速北北東 4m/s
視程10km以上
天気現象細氷
少しの雲 雲底高度 1520m
気温-42℃
湿度65%
気圧1015.4hPa
METARCWEU 301700Z 02007KT 15SM IC FEW050 M42/M46 A2992 RMK SC1 SLP154
過去の天気等 Google飛行場航空写真 Wunderground天気予報

過去48時間のMETAR

飛行場予報(TAF)
データがありません